sensor_id;sensor_type;location;lat;lon;timestamp;P1;durP1;ratioP1;P2;durP2;ratioP2
6467;SDS011;3267;48.794;9.928;2022-11-03T05:02:27;5.38;;;2.47;;
6467;SDS011;3267;48.794;9.928;2022-11-03T05:04:55;2.33;;;1.83;;
6467;SDS011;3267;48.794;9.928;2022-11-03T05:07:27;5.57;;;2.20;;
6467;SDS011;3267;48.794;9.928;2022-11-03T05:09:54;5.72;;;1.95;;
6467;SDS011;3267;48.794;9.928;2022-11-03T05:12:20;3.35;;;1.95;;
6467;SDS011;3267;48.794;9.928;2022-11-03T05:14:47;7.68;;;2.97;;
6467;SDS011;3267;48.794;9.928;2022-11-03T05:17:23;4.32;;;2.90;;
6467;SDS011;3267;48.794;9.928;2022-11-03T05:19:59;8.10;;;2.30;;
6467;SDS011;3267;48.794;9.928;2022-11-03T05:22:28;3.50;;;1.90;;
6467;SDS011;3267;48.794;9.928;2022-11-03T05:25:02;7.72;;;2.67;;
6467;SDS011;3267;48.794;9.928;2022-11-03T05:27:49;4.60;;;2.67;;
6467;SDS011;3267;48.794;9.928;2022-11-03T05:30:15;6.57;;;3.05;;
6467;SDS011;3267;48.794;9.928;2022-11-03T05:32:41;4.70;;;2.55;;
6467;SDS011;3267;48.794;9.928;2022-11-03T05:35:14;6.35;;;2.58;;
6467;SDS011;3267;48.794;9.928;2022-11-03T05:37:44;7.13;;;2.78;;
6467;SDS011;3267;48.794;9.928;2022-11-03T05:42:37;0.93;;;0.93;;
6467;SDS011;3267;48.794;9.928;2022-11-03T05:45:19;7.85;;;3.15;;
6467;SDS011;3267;48.794;9.928;2022-11-03T05:47:49;7.00;;;3.35;;
6467;SDS011;3267;48.794;9.928;2022-11-03T05:50:18;5.95;;;3.33;;
6467;SDS011;3267;48.794;9.928;2022-11-03T05:52:47;7.43;;;3.63;;
6467;SDS011;3267;48.794;9.928;2022-11-03T06:00:42;7.50;;;4.20;;
6467;SDS011;3267;48.794;9.928;2022-11-03T06:03:12;6.22;;;3.92;;
6467;SDS011;3267;48.794;9.928;2022-11-03T06:05:40;10.93;;;4.63;;
6467;SDS011;3267;48.794;9.928;2022-11-03T06:08:26;2.03;;;1.42;;
6467;SDS011;3267;48.794;9.928;2022-11-03T06:10:58;6.40;;;4.60;;
6467;SDS011;3267;48.794;9.928;2022-11-03T06:16:00;8.35;;;4.70;;
6467;SDS011;3267;48.794;9.928;2022-11-03T06:18:30;5.55;;;4.57;;
6467;SDS011;3267;48.794;9.928;2022-11-03T06:21:10;13.13;;;4.50;;
6467;SDS011;3267;48.794;9.928;2022-11-03T06:23:41;14.98;;;5.32;;
6467;SDS011;3267;48.794;9.928;2022-11-03T06:26:12;8.60;;;5.45;;
6467;SDS011;3267;48.794;9.928;2022-11-03T06:28:39;10.40;;;5.22;;
6467;SDS011;3267;48.794;9.928;2022-11-03T06:31:12;8.73;;;5.35;;
6467;SDS011;3267;48.794;9.928;2022-11-03T06:33:40;8.55;;;4.47;;
6467;SDS011;3267;48.794;9.928;2022-11-03T06:36:15;10.45;;;5.60;;
6467;SDS011;3267;48.794;9.928;2022-11-03T06:38:41;7.35;;;5.40;;
6467;SDS011;3267;48.794;9.928;2022-11-03T06:41:17;7.20;;;4.38;;
6467;SDS011;3267;48.794;9.928;2022-11-03T06:43:48;7.93;;;5.78;;
6467;SDS011;3267;48.794;9.928;2022-11-03T06:46:18;6.70;;;4.07;;
6467;SDS011;3267;48.794;9.928;2022-11-03T06:48:46;6.35;;;4.63;;
6467;SDS011;3267;48.794;9.928;2022-11-03T06:51:13;6.68;;;5.22;;
6467;SDS011;3267;48.794;9.928;2022-11-03T06:53:44;6.68;;;4.43;;
6467;SDS011;3267;48.794;9.928;2022-11-03T06:56:12;6.78;;;4.50;;
6467;SDS011;3267;48.794;9.928;2022-11-03T06:58:40;8.00;;;5.38;;
6467;SDS011;3267;48.794;9.928;2022-11-03T07:01:20;5.32;;;4.80;;
6467;SDS011;3267;48.794;9.928;2022-11-03T07:03:51;5.22;;;4.32;;
6467;SDS011;3267;48.794;9.928;2022-11-03T07:06:20;11.02;;;6.35;;
6467;SDS011;3267;48.794;9.928;2022-11-03T07:08:52;6.88;;;4.70;;
6467;SDS011;3267;48.794;9.928;2022-11-03T07:11:27;7.72;;;4.85;;
6467;SDS011;3267;48.794;9.928;2022-11-03T07:13:55;7.60;;;5.43;;
6467;SDS011;3267;48.794;9.928;2022-11-03T07:16:33;7.10;;;4.88;;
6467;SDS011;3267;48.794;9.928;2022-11-03T07:19:04;7.90;;;4.65;;
6467;SDS011;3267;48.794;9.928;2022-11-03T07:21:37;8.60;;;3.72;;
6467;SDS011;3267;48.794;9.928;2022-11-03T07:24:11;4.97;;;2.97;;
6467;SDS011;3267;48.794;9.928;2022-11-03T07:26:37;3.92;;;3.35;;
6467;SDS011;3267;48.794;9.928;2022-11-03T07:29:04;4.55;;;4.10;;
6467;SDS011;3267;48.794;9.928;2022-11-03T07:31:30;3.22;;;2.92;;
6467;SDS011;3267;48.794;9.928;2022-11-03T07:33:57;3.92;;;3.47;;
6467;SDS011;3267;48.794;9.928;2022-11-03T07:36:24;1.98;;;1.88;;
6467;SDS011;3267;48.794;9.928;2022-11-03T07:38:52;4.57;;;3.85;;
6467;SDS011;3267;48.794;9.928;2022-11-03T07:41:21;6.43;;;4.55;;
6467;SDS011;3267;48.794;9.928;2022-11-03T07:43:56;2.85;;;2.65;;
6467;SDS011;3267;48.794;9.928;2022-11-03T07:46:23;1.90;;;1.77;;
6467;SDS011;3267;48.794;9.928;2022-11-03T07:48:54;2.45;;;2.25;;
6467;SDS011;3267;48.794;9.928;2022-11-03T07:51:30;4.80;;;3.45;;
6467;SDS011;3267;48.794;9.928;2022-11-03T07:54:18;1.17;;;1.13;;
6467;SDS011;3267;48.794;9.928;2022-11-03T07:56:53;2.47;;;2.30;;
6467;SDS011;3267;48.794;9.928;2022-11-03T07:59:21;2.58;;;1.95;;
6467;SDS011;3267;48.794;9.928;2022-11-03T08:01:50;1.10;;;1.08;;
6467;SDS011;3267;48.794;9.928;2022-11-03T08:04:18;3.10;;;2.83;;
6467;SDS011;3267;48.794;9.928;2022-11-03T08:06:45;3.03;;;2.70;;
6467;SDS011;3267;48.794;9.928;2022-11-03T08:09:12;1.75;;;1.65;;
6467;SDS011;3267;48.794;9.928;2022-11-03T08:11:38;4.32;;;2.97;;
6467;SDS011;3267;48.794;9.928;2022-11-03T08:14:05;0.85;;;0.85;;
6467;SDS011;3267;48.794;9.928;2022-11-03T08:16:31;1.27;;;1.20;;
6467;SDS011;3267;48.794;9.928;2022-11-03T08:18:58;2.63;;;2.42;;
6467;SDS011;3267;48.794;9.928;2022-11-03T08:21:24;3.40;;;2.67;;
6467;SDS011;3267;48.794;9.928;2022-11-03T08:23:50;4.57;;;2.50;;
6467;SDS011;3267;48.794;9.928;2022-11-03T08:26:16;2.72;;;2.00;;
6467;SDS011;3267;48.794;9.928;2022-11-03T08:28:43;3.45;;;2.42;;
6467;SDS011;3267;48.794;9.928;2022-11-03T08:31:09;2.08;;;1.40;;
6467;SDS011;3267;48.794;9.928;2022-11-03T08:33:36;2.70;;;1.80;;
6467;SDS011;3267;48.794;9.928;2022-11-03T08:36:02;1.30;;;1.20;;
6467;SDS011;3267;48.794;9.928;2022-11-03T08:38:29;1.20;;;1.20;;
6467;SDS011;3267;48.794;9.928;2022-11-03T08:40:56;0.73;;;0.73;;
6467;SDS011;3267;48.794;9.928;2022-11-03T08:43:26;3.58;;;2.17;;
6467;SDS011;3267;48.794;9.928;2022-11-03T08:45:52;2.28;;;1.90;;
6467;SDS011;3267;48.794;9.928;2022-11-03T08:48:19;3.33;;;2.42;;
6467;SDS011;3267;48.794;9.928;2022-11-03T08:50:46;4.70;;;2.30;;
6467;SDS011;3267;48.794;9.928;2022-11-03T08:53:15;1.15;;;1.05;;
6467;SDS011;3267;48.794;9.928;2022-11-03T08:55:41;1.88;;;1.73;;
6467;SDS011;3267;48.794;9.928;2022-11-03T08:58:08;2.13;;;1.98;;
6467;SDS011;3267;48.794;9.928;2022-11-03T09:00:34;1.80;;;1.45;;
6467;SDS011;3267;48.794;9.928;2022-11-03T09:03:00;3.47;;;1.80;;
6467;SDS011;3267;48.794;9.928;2022-11-03T09:05:27;3.58;;;2.42;;
6467;SDS011;3267;48.794;9.928;2022-11-03T09:07:53;1.67;;;1.58;;
6467;SDS011;3267;48.794;9.928;2022-11-03T09:10:20;3.55;;;2.50;;
6467;SDS011;3267;48.794;9.928;2022-11-03T09:12:46;4.50;;;2.50;;
6467;SDS011;3267;48.794;9.928;2022-11-03T09:15:13;2.67;;;2.13;;
6467;SDS011;3267;48.794;9.928;2022-11-03T09:17:39;0.90;;;0.90;;
6467;SDS011;3267;48.794;9.928;2022-11-03T09:20:05;3.40;;;2.60;;
6467;SDS011;3267;48.794;9.928;2022-11-03T09:22:32;2.95;;;2.20;;
6467;SDS011;3267;48.794;9.928;2022-11-03T09:24:58;1.55;;;1.10;;
6467;SDS011;3267;48.794;9.928;2022-11-03T09:27:26;3.47;;;2.58;;
6467;SDS011;3267;48.794;9.928;2022-11-03T09:29:52;4.10;;;2.40;;
6467;SDS011;3267;48.794;9.928;2022-11-03T09:32:18;7.00;;;2.08;;
6467;SDS011;3267;48.794;9.928;2022-11-03T09:34:45;2.88;;;2.22;;
6467;SDS011;3267;48.794;9.928;2022-11-03T09:37:12;2.20;;;1.85;;
6467;SDS011;3267;48.794;9.928;2022-11-03T09:39:38;2.78;;;2.08;;
6467;SDS011;3267;48.794;9.928;2022-11-03T09:42:04;2.35;;;2.03;;
6467;SDS011;3267;48.794;9.928;2022-11-03T09:44:32;3.47;;;2.30;;
6467;SDS011;3267;48.794;9.928;2022-11-03T09:46:59;2.00;;;1.63;;
6467;SDS011;3267;48.794;9.928;2022-11-03T09:49:25;2.47;;;1.77;;
6467;SDS011;3267;48.794;9.928;2022-11-03T09:51:54;3.33;;;2.38;;
6467;SDS011;3267;48.794;9.928;2022-11-03T09:54:21;3.30;;;2.20;;
6467;SDS011;3267;48.794;9.928;2022-11-03T09:56:47;3.42;;;1.92;;
6467;SDS011;3267;48.794;9.928;2022-11-03T09:59:14;5.43;;;2.20;;
6467;SDS011;3267;48.794;9.928;2022-11-03T10:01:42;2.08;;;1.95;;
6467;SDS011;3267;48.794;9.928;2022-11-03T10:04:10;4.55;;;1.92;;
6467;SDS011;3267;48.794;9.928;2022-11-03T10:06:37;2.30;;;2.10;;
6467;SDS011;3267;48.794;9.928;2022-11-03T10:09:04;4.70;;;2.10;;
6467;SDS011;3267;48.794;9.928;2022-11-03T10:11:33;2.58;;;2.38;;
6467;SDS011;3267;48.794;9.928;2022-11-03T10:13:59;5.25;;;2.47;;
6467;SDS011;3267;48.794;9.928;2022-11-03T10:16:26;2.45;;;2.20;;
6467;SDS011;3267;48.794;9.928;2022-11-03T10:18:52;0.73;;;0.73;;
6467;SDS011;3267;48.794;9.928;2022-11-03T10:21:20;5.93;;;2.28;;
6467;SDS011;3267;48.794;9.928;2022-11-03T10:23:51;2.75;;;2.20;;
6467;SDS011;3267;48.794;9.928;2022-11-03T10:26:17;2.47;;;2.28;;
6467;SDS011;3267;48.794;9.928;2022-11-03T10:31:30;2.67;;;1.80;;
6467;SDS011;3267;48.794;9.928;2022-11-03T10:33:57;1.77;;;1.67;;
6467;SDS011;3267;48.794;9.928;2022-11-03T10:36:25;2.45;;;1.73;;
6467;SDS011;3267;48.794;9.928;2022-11-03T10:38:52;2.85;;;2.00;;
6467;SDS011;3267;48.794;9.928;2022-11-03T10:41:22;1.85;;;1.58;;
6467;SDS011;3267;48.794;9.928;2022-11-03T10:46:37;1.58;;;1.48;;
6467;SDS011;3267;48.794;9.928;2022-11-03T10:49:13;4.07;;;1.98;;
6467;SDS011;3267;48.794;9.928;2022-11-03T10:51:41;1.95;;;1.40;;
6467;SDS011;3267;48.794;9.928;2022-11-03T10:54:11;1.98;;;1.55;;
6467;SDS011;3267;48.794;9.928;2022-11-03T10:56:39;1.38;;;1.30;;
6467;SDS011;3267;48.794;9.928;2022-11-03T10:59:08;1.52;;;1.40;;
6467;SDS011;3267;48.794;9.928;2022-11-03T11:01:42;1.50;;;1.40;;
6467;SDS011;3267;48.794;9.928;2022-11-03T11:04:09;1.40;;;1.30;;
6467;SDS011;3267;48.794;9.928;2022-11-03T11:06:39;3.15;;;1.33;;
6467;SDS011;3267;48.794;9.928;2022-11-03T11:09:08;1.30;;;1.20;;
6467;SDS011;3267;48.794;9.928;2022-11-03T11:11:36;2.28;;;1.20;;
6467;SDS011;3267;48.794;9.928;2022-11-03T11:16:56;2.05;;;1.30;;
6467;SDS011;3267;48.794;9.928;2022-11-03T11:19:23;1.35;;;1.23;;
6467;SDS011;3267;48.794;9.928;2022-11-03T11:29:59;1.23;;;1.20;;
6467;SDS011;3267;48.794;9.928;2022-11-03T11:37:42;2.72;;;1.30;;
6467;SDS011;3267;48.794;9.928;2022-11-03T11:40:10;1.55;;;1.27;;
6467;SDS011;3267;48.794;9.928;2022-11-03T11:48:29;1.35;;;1.20;;
6467;SDS011;3267;48.794;9.928;2022-11-03T11:50:56;3.63;;;1.55;;
6467;SDS011;3267;48.794;9.928;2022-11-03T11:53:22;1.65;;;1.20;;
6467;SDS011;3267;48.794;9.928;2022-11-03T11:55:50;2.10;;;1.33;;
6467;SDS011;3267;48.794;9.928;2022-11-03T12:00:57;3.55;;;1.60;;
6467;SDS011;3267;48.794;9.928;2022-11-03T12:03:35;5.82;;;1.63;;
6467;SDS011;3267;48.794;9.928;2022-11-03T12:06:05;1.70;;;1.45;;
6467;SDS011;3267;48.794;9.928;2022-11-03T12:08:31;2.25;;;1.70;;
6467;SDS011;3267;48.794;9.928;2022-11-03T12:10:58;1.75;;;1.63;;
6467;SDS011;3267;48.794;9.928;2022-11-03T12:16:24;1.80;;;1.40;;
6467;SDS011;3267;48.794;9.928;2022-11-03T12:18:52;2.80;;;1.60;;
6467;SDS011;3267;48.794;9.928;2022-11-03T12:24:24;2.83;;;1.58;;
6467;SDS011;3267;48.794;9.928;2022-11-03T12:26:51;1.48;;;1.38;;
6467;SDS011;3267;48.794;9.928;2022-11-03T12:29:17;2.80;;;1.65;;
6467;SDS011;3267;48.794;9.928;2022-11-03T12:31:45;2.92;;;1.63;;
6467;SDS011;3267;48.794;9.928;2022-11-03T12:34:14;3.97;;;1.98;;
6467;SDS011;3267;48.794;9.928;2022-11-03T12:36:41;1.90;;;1.80;;
6467;SDS011;3267;48.794;9.928;2022-11-03T12:39:10;2.40;;;1.70;;
6467;SDS011;3267;48.794;9.928;2022-11-03T12:41:37;5.78;;;1.83;;
6467;SDS011;3267;48.794;9.928;2022-11-03T12:44:03;5.75;;;2.13;;
6467;SDS011;3267;48.794;9.928;2022-11-03T12:46:29;3.15;;;1.75;;
6467;SDS011;3267;48.794;9.928;2022-11-03T12:48:55;2.67;;;2.00;;
6467;SDS011;3267;48.794;9.928;2022-11-03T12:51:22;2.90;;;2.42;;
6467;SDS011;3267;48.794;9.928;2022-11-03T12:53:49;3.28;;;2.28;;
6467;SDS011;3267;48.794;9.928;2022-11-03T12:56:16;1.70;;;1.60;;
6467;SDS011;3267;48.794;9.928;2022-11-03T12:58:43;1.67;;;1.58;;
6467;SDS011;3267;48.794;9.928;2022-11-03T13:01:09;2.05;;;1.90;;
6467;SDS011;3267;48.794;9.928;2022-11-03T13:03:35;3.80;;;1.98;;
6467;SDS011;3267;48.794;9.928;2022-11-03T13:06:02;3.00;;;2.53;;
6467;SDS011;3267;48.794;9.928;2022-11-03T13:08:34;3.05;;;2.33;;
6467;SDS011;3267;48.794;9.928;2022-11-03T13:11:00;4.30;;;2.20;;
6467;SDS011;3267;48.794;9.928;2022-11-03T13:13:26;2.75;;;2.03;;
6467;SDS011;3267;48.794;9.928;2022-11-03T13:15:52;1.92;;;1.83;;
6467;SDS011;3267;48.794;9.928;2022-11-03T13:18:19;4.15;;;2.33;;
6467;SDS011;3267;48.794;9.928;2022-11-03T13:20:45;2.65;;;1.95;;
6467;SDS011;3267;48.794;9.928;2022-11-03T13:23:12;2.50;;;2.08;;
6467;SDS011;3267;48.794;9.928;2022-11-03T13:25:37;2.53;;;2.08;;
6467;SDS011;3267;48.794;9.928;2022-11-03T13:28:04;2.42;;;2.08;;
6467;SDS011;3267;48.794;9.928;2022-11-03T13:30:30;3.05;;;1.83;;
6467;SDS011;3267;48.794;9.928;2022-11-03T13:32:57;5.22;;;1.98;;
6467;SDS011;3267;48.794;9.928;2022-11-03T13:35:23;2.83;;;2.10;;
6467;SDS011;3267;48.794;9.928;2022-11-03T13:37:49;3.20;;;1.98;;
6467;SDS011;3267;48.794;9.928;2022-11-03T13:40:16;2.58;;;2.38;;
6467;SDS011;3267;48.794;9.928;2022-11-03T13:42:42;5.63;;;2.42;;
6467;SDS011;3267;48.794;9.928;2022-11-03T13:45:08;4.70;;;2.67;;
6467;SDS011;3267;48.794;9.928;2022-11-03T13:47:34;3.53;;;3.08;;
6467;SDS011;3267;48.794;9.928;2022-11-03T13:50:01;4.65;;;2.88;;
6467;SDS011;3267;48.794;9.928;2022-11-03T13:52:28;4.03;;;3.22;;
6467;SDS011;3267;48.794;9.928;2022-11-03T13:54:54;1.25;;;1.23;;
6467;SDS011;3267;48.794;9.928;2022-11-03T13:57:20;3.80;;;3.08;;
6467;SDS011;3267;48.794;9.928;2022-11-03T13:59:47;1.85;;;1.63;;
6467;SDS011;3267;48.794;9.928;2022-11-03T14:02:12;3.83;;;2.10;;
6467;SDS011;3267;48.794;9.928;2022-11-03T14:04:39;4.97;;;3.80;;
6467;SDS011;3267;48.794;9.928;2022-11-03T14:07:05;3.95;;;2.83;;
6467;SDS011;3267;48.794;9.928;2022-11-03T14:09:32;3.40;;;2.85;;
6467;SDS011;3267;48.794;9.928;2022-11-03T14:11:58;2.42;;;1.92;;
6467;SDS011;3267;48.794;9.928;2022-11-03T14:14:43;3.38;;;2.78;;
6467;SDS011;3267;48.794;9.928;2022-11-03T14:17:09;5.25;;;2.90;;
6467;SDS011;3267;48.794;9.928;2022-11-03T14:19:35;3.35;;;3.05;;
6467;SDS011;3267;48.794;9.928;2022-11-03T14:22:01;3.50;;;3.20;;
6467;SDS011;3267;48.794;9.928;2022-11-03T14:24:27;1.58;;;1.02;;
6467;SDS011;3267;48.794;9.928;2022-11-03T14:26:53;3.72;;;2.78;;
6467;SDS011;3267;48.794;9.928;2022-11-03T14:29:19;7.88;;;3.40;;
6467;SDS011;3267;48.794;9.928;2022-11-03T14:31:44;5.05;;;4.15;;
6467;SDS011;3267;48.794;9.928;2022-11-03T14:34:10;5.88;;;4.03;;
6467;SDS011;3267;48.794;9.928;2022-11-03T14:36:36;1.55;;;1.35;;
6467;SDS011;3267;48.794;9.928;2022-11-03T14:39:02;4.75;;;3.78;;
6467;SDS011;3267;48.794;9.928;2022-11-03T14:41:28;1.65;;;1.55;;
6467;SDS011;3267;48.794;9.928;2022-11-03T14:44:14;5.50;;;3.20;;
6467;SDS011;3267;48.794;9.928;2022-11-03T14:46:39;4.65;;;4.15;;
6467;SDS011;3267;48.794;9.928;2022-11-03T14:49:05;4.78;;;4.35;;
6467;SDS011;3267;48.794;9.928;2022-11-03T14:51:31;5.70;;;4.78;;
6467;SDS011;3267;48.794;9.928;2022-11-03T14:53:57;7.22;;;4.53;;
6467;SDS011;3267;48.794;9.928;2022-11-03T14:56:23;2.88;;;2.60;;
6467;SDS011;3267;48.794;9.928;2022-11-03T14:58:49;7.07;;;3.83;;
6467;SDS011;3267;48.794;9.928;2022-11-03T15:01:15;6.93;;;4.95;;
6467;SDS011;3267;48.794;9.928;2022-11-03T15:03:41;5.20;;;4.70;;
6467;SDS011;3267;48.794;9.928;2022-11-03T15:06:08;3.95;;;3.55;;
6467;SDS011;3267;48.794;9.928;2022-11-03T15:08:35;6.95;;;5.35;;
6467;SDS011;3267;48.794;9.928;2022-11-03T15:11:02;7.47;;;4.70;;
6467;SDS011;3267;48.794;9.928;2022-11-03T15:13:29;5.22;;;4.38;;
6467;SDS011;3267;48.794;9.928;2022-11-03T15:15:55;7.70;;;5.05;;
6467;SDS011;3267;48.794;9.928;2022-11-03T15:18:21;8.70;;;5.07;;
6467;SDS011;3267;48.794;9.928;2022-11-03T15:20:47;7.75;;;5.55;;
6467;SDS011;3267;48.794;9.928;2022-11-03T15:23:15;5.53;;;4.72;;
6467;SDS011;3267;48.794;9.928;2022-11-03T15:25:41;6.63;;;5.00;;
6467;SDS011;3267;48.794;9.928;2022-11-03T15:28:07;5.97;;;3.92;;
6467;SDS011;3267;48.794;9.928;2022-11-03T15:30:34;7.45;;;5.10;;
6467;SDS011;3267;48.794;9.928;2022-11-03T15:33:03;6.93;;;5.30;;
6467;SDS011;3267;48.794;9.928;2022-11-03T15:35:29;3.95;;;2.67;;
6467;SDS011;3267;48.794;9.928;2022-11-03T15:37:54;6.57;;;5.53;;
6467;SDS011;3267;48.794;9.928;2022-11-03T15:40:23;5.63;;;5.03;;
6467;SDS011;3267;48.794;9.928;2022-11-03T15:42:50;6.35;;;4.20;;
6467;SDS011;3267;48.794;9.928;2022-11-03T15:45:16;8.07;;;4.70;;
6467;SDS011;3267;48.794;9.928;2022-11-03T15:47:42;6.10;;;4.72;;
6467;SDS011;3267;48.794;9.928;2022-11-03T15:50:09;8.52;;;4.90;;
6467;SDS011;3267;48.794;9.928;2022-11-03T15:52:36;7.70;;;5.57;;
6467;SDS011;3267;48.794;9.928;2022-11-03T15:55:03;3.40;;;3.00;;
6467;SDS011;3267;48.794;9.928;2022-11-03T15:57:30;5.90;;;4.85;;
6467;SDS011;3267;48.794;9.928;2022-11-03T15:59:56;9.25;;;5.85;;
6467;SDS011;3267;48.794;9.928;2022-11-03T16:02:22;11.80;;;5.25;;
6467;SDS011;3267;48.794;9.928;2022-11-03T16:04:48;6.93;;;5.10;;
6467;SDS011;3267;48.794;9.928;2022-11-03T16:07:15;11.63;;;5.30;;
6467;SDS011;3267;48.794;9.928;2022-11-03T16:09:41;6.85;;;5.90;;
6467;SDS011;3267;48.794;9.928;2022-11-03T16:12:07;8.18;;;5.78;;
6467;SDS011;3267;48.794;9.928;2022-11-03T16:14:33;7.80;;;6.18;;
6467;SDS011;3267;48.794;9.928;2022-11-03T16:16:59;8.82;;;7.03;;
6467;SDS011;3267;48.794;9.928;2022-11-03T16:19:25;7.07;;;6.32;;
6467;SDS011;3267;48.794;9.928;2022-11-03T16:21:51;8.15;;;5.90;;
6467;SDS011;3267;48.794;9.928;2022-11-03T16:24:17;9.10;;;6.47;;
6467;SDS011;3267;48.794;9.928;2022-11-03T16:26:43;8.63;;;6.43;;
6467;SDS011;3267;48.794;9.928;2022-11-03T16:29:09;8.38;;;6.13;;
6467;SDS011;3267;48.794;9.928;2022-11-03T16:31:35;8.07;;;6.15;;
6467;SDS011;3267;48.794;9.928;2022-11-03T16:34:01;6.40;;;5.75;;
6467;SDS011;3267;48.794;9.928;2022-11-03T16:36:29;6.38;;;5.40;;
6467;SDS011;3267;48.794;9.928;2022-11-03T16:38:55;5.97;;;5.38;;
6467;SDS011;3267;48.794;9.928;2022-11-03T16:41:21;7.38;;;4.53;;
6467;SDS011;3267;48.794;9.928;2022-11-03T16:43:46;6.30;;;5.70;;
6467;SDS011;3267;48.794;9.928;2022-11-03T16:46:14;4.40;;;4.05;;
6467;SDS011;3267;48.794;9.928;2022-11-03T16:48:40;6.28;;;5.15;;
6467;SDS011;3267;48.794;9.928;2022-11-03T16:51:06;4.22;;;3.80;;
6467;SDS011;3267;48.794;9.928;2022-11-03T16:53:32;4.88;;;3.75;;
6467;SDS011;3267;48.794;9.928;2022-11-03T16:55:58;8.13;;;4.97;;
6467;SDS011;3267;48.794;9.928;2022-11-03T16:58:24;7.43;;;4.80;;
6467;SDS011;3267;48.794;9.928;2022-11-03T17:00:50;5.68;;;4.57;;
6467;SDS011;3267;48.794;9.928;2022-11-03T17:03:16;6.22;;;5.40;;
6467;SDS011;3267;48.794;9.928;2022-11-03T17:05:42;8.10;;;5.75;;
6467;SDS011;3267;48.794;9.928;2022-11-03T17:08:09;5.05;;;4.30;;
6467;SDS011;3267;48.794;9.928;2022-11-03T17:10:35;7.78;;;5.97;;
6467;SDS011;3267;48.794;9.928;2022-11-03T17:13:02;6.35;;;4.63;;
6467;SDS011;3267;48.794;9.928;2022-11-03T17:15:27;4.80;;;3.85;;
6467;SDS011;3267;48.794;9.928;2022-11-03T17:17:54;6.95;;;4.97;;
6467;SDS011;3267;48.794;9.928;2022-11-03T17:20:20;4.38;;;3.78;;
6467;SDS011;3267;48.794;9.928;2022-11-03T17:22:46;9.73;;;4.28;;
6467;SDS011;3267;48.794;9.928;2022-11-03T17:25:12;7.00;;;5.30;;
6467;SDS011;3267;48.794;9.928;2022-11-03T17:27:42;7.78;;;4.60;;
6467;SDS011;3267;48.794;9.928;2022-11-03T17:30:20;6.85;;;4.20;;
6467;SDS011;3267;48.794;9.928;2022-11-03T17:32:52;6.72;;;4.55;;
6467;SDS011;3267;48.794;9.928;2022-11-03T17:35:40;6.60;;;4.28;;
6467;SDS011;3267;48.794;9.928;2022-11-03T17:38:09;6.72;;;5.03;;
6467;SDS011;3267;48.794;9.928;2022-11-03T17:40:40;6.72;;;4.72;;
6467;SDS011;3267;48.794;9.928;2022-11-03T17:43:11;6.70;;;5.05;;
6467;SDS011;3267;48.794;9.928;2022-11-03T17:45:43;5.80;;;4.97;;
6467;SDS011;3267;48.794;9.928;2022-11-03T17:48:09;6.88;;;5.30;;
6467;SDS011;3267;48.794;9.928;2022-11-03T17:50:36;6.63;;;5.85;;
6467;SDS011;3267;48.794;9.928;2022-11-03T17:53:07;5.43;;;4.65;;
6467;SDS011;3267;48.794;9.928;2022-11-03T17:55:41;6.65;;;4.25;;
6467;SDS011;3267;48.794;9.928;2022-11-03T17:58:08;5.65;;;5.07;;
6467;SDS011;3267;48.794;9.928;2022-11-03T18:00:34;4.75;;;4.25;;
6467;SDS011;3267;48.794;9.928;2022-11-03T18:03:01;10.82;;;4.80;;
6467;SDS011;3267;48.794;9.928;2022-11-03T18:05:29;7.00;;;4.85;;
6467;SDS011;3267;48.794;9.928;2022-11-03T18:07:56;5.68;;;5.05;;
6467;SDS011;3267;48.794;9.928;2022-11-03T18:10:24;5.03;;;4.10;;
6467;SDS011;3267;48.794;9.928;2022-11-03T18:12:57;6.15;;;4.85;;
6467;SDS011;3267;48.794;9.928;2022-11-03T18:15:46;6.00;;;4.97;;
6467;SDS011;3267;48.794;9.928;2022-11-03T18:18:19;7.15;;;4.93;;
6467;SDS011;3267;48.794;9.928;2022-11-03T18:20:54;9.38;;;4.88;;
6467;SDS011;3267;48.794;9.928;2022-11-03T18:23:21;7.22;;;4.80;;
6467;SDS011;3267;48.794;9.928;2022-11-03T18:25:53;6.53;;;4.75;;
6467;SDS011;3267;48.794;9.928;2022-11-03T18:28:19;5.68;;;4.28;;
6467;SDS011;3267;48.794;9.928;2022-11-03T18:30:46;6.80;;;5.20;;
6467;SDS011;3267;48.794;9.928;2022-11-03T18:33:34;4.95;;;3.80;;
6467;SDS011;3267;48.794;9.928;2022-11-03T18:36:01;10.07;;;4.65;;
6467;SDS011;3267;48.794;9.928;2022-11-03T18:38:30;7.88;;;4.88;;
6467;SDS011;3267;48.794;9.928;2022-11-03T18:40:58;5.40;;;4.43;;
6467;SDS011;3267;48.794;9.928;2022-11-03T18:43:24;8.35;;;5.43;;
6467;SDS011;3267;48.794;9.928;2022-11-03T18:45:50;5.32;;;4.70;;
6467;SDS011;3267;48.794;9.928;2022-11-03T18:48:19;7.13;;;3.85;;
6467;SDS011;3267;48.794;9.928;2022-11-03T18:53:15;5.95;;;4.28;;
6467;SDS011;3267;48.794;9.928;2022-11-03T18:55:43;7.57;;;4.35;;
6467;SDS011;3267;48.794;9.928;2022-11-03T18:58:16;5.10;;;4.32;;
6467;SDS011;3267;48.794;9.928;2022-11-03T19:00:44;5.90;;;4.30;;
6467;SDS011;3267;48.794;9.928;2022-11-03T19:03:14;6.88;;;4.10;;
6467;SDS011;3267;48.794;9.928;2022-11-03T19:05:44;5.75;;;4.32;;
6467;SDS011;3267;48.794;9.928;2022-11-03T19:10:49;13.13;;;4.32;;
6467;SDS011;3267;48.794;9.928;2022-11-03T19:13:17;7.20;;;3.65;;
6467;SDS011;3267;48.794;9.928;2022-11-03T19:15:49;6.90;;;3.38;;
6467;SDS011;3267;48.794;9.928;2022-11-03T19:18:15;5.35;;;4.15;;
6467;SDS011;3267;48.794;9.928;2022-11-03T19:20:42;4.07;;;3.67;;
6467;SDS011;3267;48.794;9.928;2022-11-03T19:23:08;9.05;;;3.58;;
6467;SDS011;3267;48.794;9.928;2022-11-03T19:25:35;6.03;;;3.40;;
6467;SDS011;3267;48.794;9.928;2022-11-03T19:28:04;3.90;;;3.40;;
6467;SDS011;3267;48.794;9.928;2022-11-03T19:30:30;9.38;;;3.58;;
6467;SDS011;3267;48.794;9.928;2022-11-03T19:32:56;4.25;;;3.65;;
6467;SDS011;3267;48.794;9.928;2022-11-03T19:35:24;4.10;;;3.58;;
6467;SDS011;3267;48.794;9.928;2022-11-03T19:37:57;4.50;;;3.45;;
6467;SDS011;3267;48.794;9.928;2022-11-03T19:40:29;3.88;;;3.45;;
6467;SDS011;3267;48.794;9.928;2022-11-03T19:42:56;6.43;;;4.45;;
6467;SDS011;3267;48.794;9.928;2022-11-03T19:45:22;3.03;;;2.80;;
6467;SDS011;3267;48.794;9.928;2022-11-03T19:47:56;4.32;;;3.67;;
6467;SDS011;3267;48.794;9.928;2022-11-03T19:50:27;9.45;;;2.67;;
6467;SDS011;3267;48.794;9.928;2022-11-03T19:53:02;5.47;;;3.30;;
6467;SDS011;3267;48.794;9.928;2022-11-03T19:55:31;4.13;;;3.03;;
6467;SDS011;3267;48.794;9.928;2022-11-03T19:58:45;3.10;;;2.80;;
6467;SDS011;3267;48.794;9.928;2022-11-03T20:00:48;5.90;;;3.22;;
6467;SDS011;3267;48.794;9.928;2022-11-03T20:03:18;5.05;;;3.80;;
6467;SDS011;3267;48.794;9.928;2022-11-03T20:05:44;5.80;;;3.75;;
6467;SDS011;3267;48.794;9.928;2022-11-03T20:08:14;4.20;;;3.63;;
6467;SDS011;3267;48.794;9.928;2022-11-03T20:10:43;3.22;;;2.90;;
6467;SDS011;3267;48.794;9.928;2022-11-03T20:13:15;3.55;;;2.72;;
6467;SDS011;3267;48.794;9.928;2022-11-03T20:15:43;4.32;;;3.28;;
6467;SDS011;3267;48.794;9.928;2022-11-03T20:18:13;3.53;;;3.22;;
6467;SDS011;3267;48.794;9.928;2022-11-03T20:20:40;5.00;;;3.40;;
6467;SDS011;3267;48.794;9.928;2022-11-03T20:23:13;4.75;;;3.42;;
6467;SDS011;3267;48.794;9.928;2022-11-03T20:25:45;4.90;;;3.08;;
6467;SDS011;3267;48.794;9.928;2022-11-03T20:28:17;4.22;;;3.05;;
6467;SDS011;3267;48.794;9.928;2022-11-03T20:30:45;21.67;;;11.63;;
6467;SDS011;3267;48.794;9.928;2022-11-03T20:33:12;4.72;;;4.25;;
6467;SDS011;3267;48.794;9.928;2022-11-03T20:35:40;4.50;;;3.08;;
6467;SDS011;3267;48.794;9.928;2022-11-03T20:38:07;3.30;;;3.00;;
6467;SDS011;3267;48.794;9.928;2022-11-03T20:40:36;3.45;;;3.08;;
6467;SDS011;3267;48.794;9.928;2022-11-03T20:43:03;3.45;;;3.05;;
6467;SDS011;3267;48.794;9.928;2022-11-03T20:45:29;6.10;;;2.63;;
6467;SDS011;3267;48.794;9.928;2022-11-03T20:47:55;3.25;;;2.88;;
6467;SDS011;3267;48.794;9.928;2022-11-03T20:50:21;5.80;;;3.03;;
6467;SDS011;3267;48.794;9.928;2022-11-03T20:52:48;4.30;;;3.15;;
6467;SDS011;3267;48.794;9.928;2022-11-03T20:57:43;3.88;;;2.92;;
6467;SDS011;3267;48.794;9.928;2022-11-03T21:00:14;2.75;;;2.53;;
6467;SDS011;3267;48.794;9.928;2022-11-03T21:02:44;3.70;;;2.45;;
6467;SDS011;3267;48.794;9.928;2022-11-03T21:05:14;11.60;;;9.18;;
6467;SDS011;3267;48.794;9.928;2022-11-03T21:07:42;10.85;;;7.38;;
6467;SDS011;3267;48.794;9.928;2022-11-03T21:10:09;3.60;;;3.15;;
6467;SDS011;3267;48.794;9.928;2022-11-03T21:12:36;7.28;;;3.03;;
6467;SDS011;3267;48.794;9.928;2022-11-03T21:15:02;3.28;;;2.40;;
6467;SDS011;3267;48.794;9.928;2022-11-03T21:17:55;8.02;;;2.70;;